createdAt,value
2018-11-03T00:00:04.852Z,19.8
2018-11-03T00:01:05.695Z,19.79
2018-11-03T00:02:04.800Z,19.78
2018-11-03T00:03:05.124Z,19.77
2018-11-03T00:04:04.776Z,19.78
2018-11-03T00:05:04.719Z,19.77
2018-11-03T00:06:04.643Z,19.76
2018-11-03T00:07:04.848Z,19.76
2018-11-03T00:08:05.109Z,19.77
2018-11-03T00:09:04.825Z,19.76
2018-11-03T00:10:05.090Z,19.75
2018-11-03T00:11:04.711Z,19.76
2018-11-03T00:12:04.876Z,19.75
2018-11-03T00:13:04.770Z,19.75
2018-11-03T00:14:05.015Z,19.74
2018-11-03T00:15:05.163Z,19.74
2018-11-03T00:16:04.913Z,19.73
2018-11-03T00:17:05.140Z,19.73
2018-11-03T00:18:04.934Z,19.73
2018-11-03T00:19:04.821Z,19.74
2018-11-03T00:20:05.201Z,19.74
2018-11-03T00:21:04.837Z,19.72
2018-11-03T00:22:05.204Z,19.71
2018-11-03T00:23:04.668Z,19.71
2018-11-03T00:24:05.126Z,19.69
2018-11-03T00:25:05.045Z,19.7
2018-11-03T00:26:05.070Z,19.7
2018-11-03T00:27:05.413Z,19.69
2018-11-03T00:28:04.720Z,19.7
2018-11-03T00:29:04.752Z,19.69
2018-11-03T00:30:05.246Z,19.69
2018-11-03T00:31:04.963Z,19.69
2018-11-03T00:32:05.191Z,19.68
2018-11-03T00:33:04.712Z,19.68
2018-11-03T00:34:05.058Z,19.67
2018-11-03T00:35:04.839Z,19.67
2018-11-03T00:36:04.893Z,19.67
2018-11-03T00:37:05.132Z,19.68
2018-11-03T00:38:04.772Z,19.67
2018-11-03T00:39:04.841Z,19.66
2018-11-03T00:40:05.271Z,19.66
2018-11-03T00:41:05.064Z,19.66
2018-11-03T00:42:04.853Z,19.66
2018-11-03T00:43:05.032Z,19.64
2018-11-03T00:44:04.682Z,19.65
2018-11-03T00:45:04.982Z,19.66
2018-11-03T00:46:04.930Z,19.64
2018-11-03T00:47:04.780Z,19.65
2018-11-03T00:48:05.798Z,19.64
2018-11-03T00:49:05.007Z,19.65
2018-11-03T00:50:05.575Z,19.64
2018-11-03T00:51:04.669Z,19.64
2018-11-03T00:52:05.176Z,19.63
2018-11-03T00:53:04.872Z,19.63
2018-11-03T00:54:05.330Z,19.62
2018-11-03T00:55:04.923Z,19.62
2018-11-03T00:56:04.818Z,19.62
2018-11-03T00:57:04.799Z,19.61
2018-11-03T00:58:05.095Z,19.62
2018-11-03T00:59:04.773Z,19.6
2018-11-03T01:00:04.836Z,19.6
2018-11-03T01:01:04.950Z,19.61
2018-11-03T01:02:05.168Z,19.6
2018-11-03T01:03:04.995Z,19.59
2018-11-03T01:04:05.078Z,19.6
2018-11-03T01:05:04.892Z,19.59
2018-11-03T01:06:04.788Z,19.59
2018-11-03T01:07:05.031Z,19.58
2018-11-03T01:08:04.994Z,19.58
2018-11-03T01:09:05.214Z,19.58
2018-11-03T01:10:05.014Z,19.57
2018-11-03T01:11:04.946Z,19.57
2018-11-03T01:12:05.075Z,19.56
2018-11-03T01:13:05.077Z,19.56
2018-11-03T01:14:04.910Z,19.56
2018-11-03T01:15:04.813Z,19.55
2018-11-03T01:16:04.910Z,19.56
2018-11-03T01:17:04.869Z,19.55
2018-11-03T01:18:05.259Z,19.55
2018-11-03T01:19:05.238Z,19.54
2018-11-03T01:20:05.318Z,19.54
2018-11-03T01:21:04.852Z,19.54
2018-11-03T01:22:04.808Z,19.53
2018-11-03T01:23:04.926Z,19.54
2018-11-03T01:24:05.205Z,19.54
2018-11-03T01:25:04.980Z,19.54
2018-11-03T01:26:04.679Z,19.54
2018-11-03T01:27:05.031Z,19.54
2018-11-03T01:28:04.875Z,19.55
2018-11-03T01:29:04.743Z,19.54
2018-11-03T01:30:04.831Z,19.53
2018-11-03T01:31:04.630Z,19.54
2018-11-03T01:32:04.914Z,19.52
2018-11-03T01:33:04.706Z,19.52
2018-11-03T01:34:05.232Z,19.52
2018-11-03T01:35:04.834Z,19.52
2018-11-03T01:36:04.826Z,19.52
2018-11-03T01:37:04.973Z,19.53
2018-11-03T01:38:04.692Z,19.52
2018-11-03T01:39:04.819Z,19.52
2018-11-03T01:40:04.603Z,19.5
2018-11-03T01:41:04.919Z,19.51
2018-11-03T01:42:04.843Z,19.5
2018-11-03T01:43:04.722Z,19.5
2018-11-03T01:44:04.845Z,19.5
2018-11-03T01:45:05.042Z,19.5
2018-11-03T01:46:04.845Z,19.5
2018-11-03T01:47:05.165Z,19.49
2018-11-03T01:48:05.114Z,19.49
2018-11-03T01:49:04.842Z,19.48
2018-11-03T01:50:05.076Z,19.47
2018-11-03T01:51:04.847Z,19.47
2018-11-03T01:52:04.906Z,19.47
2018-11-03T01:53:05.250Z,19.47
2018-11-03T01:54:04.613Z,19.47
2018-11-03T01:55:04.803Z,19.5
2018-11-03T01:56:05.444Z,19.48
2018-11-03T01:57:04.885Z,19.48
2018-11-03T01:58:05.086Z,19.48
2018-11-03T01:59:04.822Z,19.48
2018-11-03T02:00:04.730Z,19.47
2018-11-03T02:01:04.681Z,19.47
2018-11-03T02:02:04.823Z,19.45
2018-11-03T02:03:04.890Z,19.46
2018-11-03T02:04:05.188Z,19.45
2018-11-03T02:05:05.026Z,19.45
2018-11-03T02:06:05.013Z,19.44
2018-11-03T02:07:04.859Z,19.45
2018-11-03T02:08:05.202Z,19.44
2018-11-03T02:09:05.010Z,19.45
2018-11-03T02:10:05.257Z,19.44
2018-11-03T02:11:04.792Z,19.43
2018-11-03T02:12:05.646Z,19.44
2018-11-03T02:13:04.708Z,19.44
2018-11-03T02:14:04.708Z,19.43
2018-11-03T02:15:05.093Z,19.43
2018-11-03T02:16:05.357Z,19.43
2018-11-03T02:17:04.785Z,19.42
2018-11-03T02:18:04.778Z,19.43
2018-11-03T02:19:05.081Z,19.43
2018-11-03T02:20:05.000Z,19.42
2018-11-03T02:21:05.246Z,19.42
2018-11-03T02:22:05.119Z,19.43
2018-11-03T02:23:04.910Z,19.43
2018-11-03T02:24:04.877Z,19.43
2018-11-03T02:25:05.866Z,19.43
2018-11-03T02:26:05.156Z,19.4
2018-11-03T02:27:04.941Z,19.4
2018-11-03T02:28:04.680Z,19.41
2018-11-03T02:29:05.067Z,19.4
2018-11-03T02:30:05.631Z,19.4
2018-11-03T02:31:04.848Z,19.4
2018-11-03T02:32:05.506Z,19.4
2018-11-03T02:33:04.776Z,19.39
2018-11-03T02:34:05.216Z,19.4
2018-11-03T02:35:04.850Z,19.39
2018-11-03T02:36:04.991Z,19.39
2018-11-03T02:37:04.944Z,19.38
2018-11-03T02:38:05.302Z,19.38
2018-11-03T02:39:05.122Z,19.38
2018-11-03T02:40:05.171Z,19.38
2018-11-03T02:41:04.902Z,19.39
2018-11-03T02:42:04.976Z,19.38
2018-11-03T02:43:05.164Z,19.37
2018-11-03T02:44:04.705Z,19.38
2018-11-03T02:45:05.078Z,19.37
2018-11-03T02:46:04.991Z,19.37
2018-11-03T02:47:04.952Z,19.37
2018-11-03T02:48:04.974Z,19.36
2018-11-03T02:49:04.810Z,19.36
2018-11-03T02:50:05.331Z,19.36
2018-11-03T02:51:05.132Z,19.36
2018-11-03T02:52:04.834Z,19.36
2018-11-03T02:53:04.813Z,19.36
2018-11-03T02:54:04.849Z,19.36
2018-11-03T02:55:04.860Z,19.36
2018-11-03T02:56:04.997Z,19.35
2018-11-03T02:57:04.992Z,19.36
2018-11-03T02:58:05.008Z,19.36
2018-11-03T02:59:04.845Z,19.36
2018-11-03T03:00:04.826Z,19.35
2018-11-03T03:01:04.938Z,19.35
2018-11-03T03:02:04.939Z,19.33
2018-11-03T03:03:04.885Z,19.34
2018-11-03T03:04:04.999Z,19.34
2018-11-03T03:05:05.212Z,19.34
2018-11-03T03:06:04.786Z,19.34
2018-11-03T03:07:04.926Z,19.33
2018-11-03T03:08:04.665Z,19.34
2018-11-03T03:09:04.860Z,19.33
2018-11-03T03:10:04.943Z,19.34
2018-11-03T03:11:04.857Z,19.33
2018-11-03T03:12:05.024Z,19.33
2018-11-03T03:13:04.814Z,19.32
2018-11-03T03:14:05.056Z,19.32
2018-11-03T03:15:04.638Z,19.32
2018-11-03T03:16:04.797Z,19.31
2018-11-03T03:17:04.664Z,19.31
2018-11-03T03:18:04.880Z,19.32
2018-11-03T03:19:04.745Z,19.32
2018-11-03T03:20:04.943Z,19.32
2018-11-03T03:21:04.960Z,19.31
2018-11-03T03:22:04.624Z,19.31
2018-11-03T03:23:04.801Z,19.31
2018-11-03T03:24:04.731Z,19.3
2018-11-03T03:25:04.747Z,19.31
2018-11-03T03:26:05.329Z,19.3
2018-11-03T03:27:04.685Z,19.3
2018-11-03T03:28:04.773Z,19.3
2018-11-03T03:29:04.886Z,19.3
2018-11-03T03:30:04.898Z,19.31
2018-11-03T03:31:04.836Z,19.3
2018-11-03T03:32:04.914Z,19.31
2018-11-03T03:33:05.028Z,19.29
2018-11-03T03:34:04.856Z,19.3
2018-11-03T03:35:04.909Z,19.29
2018-11-03T03:36:04.955Z,19.29
2018-11-03T03:37:04.713Z,19.29
2018-11-03T03:38:05.176Z,19.28
2018-11-03T03:39:04.714Z,19.29
2018-11-03T03:40:05.074Z,19.28
2018-11-03T03:41:04.950Z,19.29
2018-11-03T03:42:04.741Z,19.27
2018-11-03T03:43:04.810Z,19.27
2018-11-03T03:44:05.226Z,19.27
2018-11-03T03:45:05.190Z,19.28
2018-11-03T03:46:05.615Z,19.28
2018-11-03T03:47:05.033Z,19.27
2018-11-03T03:48:05.182Z,19.27
2018-11-03T03:49:04.926Z,19.27
2018-11-03T03:50:04.855Z,19.26
2018-11-03T03:51:04.719Z,19.26
2018-11-03T03:52:05.234Z,19.27
2018-11-03T03:53:04.727Z,19.25
2018-11-03T03:54:04.706Z,19.26
2018-11-03T03:55:05.105Z,19.26
2018-11-03T03:56:04.846Z,19.26
2018-11-03T03:57:04.795Z,19.25
2018-11-03T03:58:04.827Z,19.25
2018-11-03T03:59:04.814Z,19.25
2018-11-03T04:00:05.163Z,19.26
2018-11-03T04:01:05.229Z,19.25
2018-11-03T04:02:04.737Z,19.25
2018-11-03T04:03:05.115Z,19.25
2018-11-03T04:04:04.912Z,19.25
2018-11-03T04:05:04.885Z,19.25
2018-11-03T04:06:04.701Z,19.25
2018-11-03T04:07:05.003Z,19.25
2018-11-03T04:08:04.815Z,19.25
2018-11-03T04:09:04.821Z,19.25
2018-11-03T04:10:05.242Z,19.23
2018-11-03T04:11:04.908Z,19.24
2018-11-03T04:12:04.725Z,19.24
2018-11-03T04:13:04.784Z,19.24
2018-11-03T04:14:04.550Z,19.23
2018-11-03T04:15:04.693Z,19.24
2018-11-03T04:16:05.070Z,19.23
2018-11-03T04:17:04.800Z,19.23
2018-11-03T04:18:04.803Z,19.23
2018-11-03T04:19:04.912Z,19.22
2018-11-03T04:20:04.879Z,19.21
2018-11-03T04:21:04.751Z,19.22
2018-11-03T04:22:04.689Z,19.21
2018-11-03T04:23:05.082Z,19.21
2018-11-03T04:24:04.862Z,19.21
2018-11-03T04:25:04.840Z,19.22
2018-11-03T04:26:05.105Z,19.2
2018-11-03T04:27:04.608Z,19.2
2018-11-03T04:28:05.263Z,19.21
2018-11-03T04:29:04.745Z,19.19
2018-11-03T04:30:05.002Z,19.2
2018-11-03T04:31:04.770Z,19.2
2018-11-03T04:32:04.815Z,19.21
2018-11-03T04:33:04.778Z,19.2
2018-11-03T04:34:04.691Z,19.19
2018-11-03T04:35:04.892Z,19.2
2018-11-03T04:36:04.631Z,19.19
2018-11-03T04:37:04.695Z,19.19
2018-11-03T04:38:04.912Z,19.19
2018-11-03T04:39:04.585Z,19.19
2018-11-03T04:40:04.681Z,19.19
2018-11-03T04:41:04.667Z,19.18
2018-11-03T04:42:04.686Z,19.19
2018-11-03T04:43:05.049Z,19.18
2018-11-03T04:44:04.848Z,19.18
2018-11-03T04:45:04.802Z,19.18
2018-11-03T04:46:04.584Z,19.18
2018-11-03T04:47:04.766Z,19.18
2018-11-03T04:48:04.632Z,19.18
2018-11-03T04:49:04.929Z,19.19
2018-11-03T04:50:04.646Z,19.18
2018-11-03T04:51:04.613Z,19.17
2018-11-03T04:52:04.827Z,19.18
2018-11-03T04:53:05.181Z,19.18
2018-11-03T04:54:04.923Z,19.18
2018-11-03T04:55:04.782Z,19.19
2018-11-03T04:56:04.988Z,19.18
2018-11-03T04:57:05.000Z,19.2
2018-11-03T04:58:04.741Z,19.2
2018-11-03T04:59:05.026Z,19.21
2018-11-03T05:00:04.901Z,19.21
2018-11-03T05:01:04.954Z,19.23
2018-11-03T05:02:04.617Z,19.24
2018-11-03T05:03:04.892Z,19.25
2018-11-03T05:04:05.080Z,19.26
2018-11-03T05:05:04.693Z,19.27
2018-11-03T05:06:05.213Z,19.28
2018-11-03T05:07:04.607Z,19.29
2018-11-03T05:08:04.920Z,19.29
2018-11-03T05:09:04.955Z,19.31
2018-11-03T05:10:05.292Z,19.31
2018-11-03T05:11:05.082Z,19.32
2018-11-03T05:12:04.654Z,19.34
2018-11-03T05:13:04.955Z,19.34
2018-11-03T05:14:04.637Z,19.36
2018-11-03T05:15:04.795Z,19.37
2018-11-03T05:16:04.761Z,19.39
2018-11-03T05:17:05.285Z,19.38
2018-11-03T05:18:04.427Z,19.41
2018-11-03T05:19:04.654Z,19.43
2018-11-03T05:20:04.817Z,19.44
2018-11-03T05:21:04.652Z,19.46
2018-11-03T05:22:04.828Z,19.48
2018-11-03T05:23:04.956Z,19.5
2018-11-03T05:24:04.627Z,19.51
2018-11-03T05:25:04.804Z,19.52
2018-11-03T05:26:04.832Z,19.55
2018-11-03T05:27:04.747Z,19.55
2018-11-03T05:28:04.721Z,19.57
2018-11-03T05:29:04.816Z,19.57
2018-11-03T05:30:04.665Z,19.59
2018-11-03T05:31:04.860Z,19.6
2018-11-03T05:32:04.820Z,19.61
2018-11-03T05:33:04.637Z,19.64
2018-11-03T05:34:04.777Z,19.64
2018-11-03T05:35:04.875Z,19.65
2018-11-03T05:36:04.871Z,19.66
2018-11-03T05:37:04.678Z,19.67
2018-11-03T05:38:04.717Z,19.68
2018-11-03T05:39:05.011Z,19.69
2018-11-03T05:40:04.877Z,19.7
2018-11-03T05:41:04.794Z,19.71
2018-11-03T05:42:05.051Z,19.73
2018-11-03T05:43:05.658Z,19.74
2018-11-03T05:44:04.856Z,19.75
2018-11-03T05:45:04.782Z,19.76
2018-11-03T05:46:05.110Z,19.76
2018-11-03T05:47:04.942Z,19.78
2018-11-03T05:48:04.995Z,19.8
2018-11-03T05:49:05.016Z,19.81
2018-11-03T05:50:04.660Z,19.82
2018-11-03T05:51:05.415Z,19.83
2018-11-03T05:52:04.634Z,19.84
2018-11-03T05:53:04.838Z,19.85
2018-11-03T05:54:05.236Z,19.86
2018-11-03T05:55:05.345Z,19.9
2018-11-03T05:56:05.027Z,19.88
2018-11-03T05:57:04.743Z,19.89
2018-11-03T05:58:05.656Z,19.89
2018-11-03T05:59:04.616Z,19.92
2018-11-03T06:00:04.777Z,19.92
2018-11-03T06:01:04.649Z,19.92
2018-11-03T06:02:04.720Z,19.93
2018-11-03T06:03:04.992Z,19.94
2018-11-03T06:04:04.759Z,19.96
2018-11-03T06:05:04.872Z,19.97
2018-11-03T06:06:04.709Z,19.98
2018-11-03T06:07:04.811Z,19.98
2018-11-03T06:08:04.703Z,19.98
2018-11-03T06:09:04.860Z,20.01
2018-11-03T06:10:04.749Z,20.01
2018-11-03T06:11:04.797Z,20.02
2018-11-03T06:12:04.629Z,20.02
2018-11-03T06:13:04.954Z,20.03
2018-11-03T06:14:04.951Z,20.03
2018-11-03T06:15:04.879Z,20.04
2018-11-03T06:16:04.824Z,20.05
2018-11-03T06:17:04.668Z,20.06
2018-11-03T06:18:04.895Z,20.06
2018-11-03T06:19:04.620Z,20.06
2018-11-03T06:20:04.720Z,20.07
2018-11-03T06:21:04.837Z,20.07
2018-11-03T06:22:04.672Z,20.07
2018-11-03T06:23:04.763Z,20.08
2018-11-03T06:24:04.537Z,20.09
2018-11-03T06:25:04.844Z,20.09
2018-11-03T06:26:04.783Z,20.08
2018-11-03T06:27:04.712Z,20.1
2018-11-03T06:28:05.223Z,20.1
2018-11-03T06:29:04.946Z,20.1
2018-11-03T06:30:05.237Z,20.1
2018-11-03T06:31:04.680Z,20.1
2018-11-03T06:32:04.737Z,20.11
2018-11-03T06:33:05.082Z,20.11
2018-11-03T06:34:04.888Z,20.13
2018-11-03T06:35:05.387Z,20.12
2018-11-03T06:36:04.555Z,20.14
2018-11-03T06:37:05.146Z,20.13
2018-11-03T06:38:04.685Z,20.14
2018-11-03T06:39:04.752Z,20.14
2018-11-03T06:40:05.461Z,20.14
2018-11-03T06:41:04.705Z,20.14
2018-11-03T06:42:04.691Z,20.15
2018-11-03T06:43:04.766Z,20.15
2018-11-03T06:44:04.617Z,20.16
2018-11-03T06:45:04.905Z,20.16
2018-11-03T06:46:04.706Z,20.16
2018-11-03T06:47:04.804Z,20.17
2018-11-03T06:48:04.673Z,20.17
2018-11-03T06:49:04.703Z,20.17
2018-11-03T06:50:04.892Z,20.18
2018-11-03T06:51:05.011Z,20.19
2018-11-03T06:52:05.166Z,20.19
2018-11-03T06:53:05.128Z,20.19
2018-11-03T06:54:04.801Z,20.21
2018-11-03T06:55:04.920Z,20.21
2018-11-03T06:56:04.627Z,20.22
2018-11-03T06:57:05.043Z,20.22
2018-11-03T06:58:04.612Z,20.23
2018-11-03T06:59:04.989Z,20.24
2018-11-03T07:00:04.934Z,20.25
2018-11-03T07:01:04.953Z,20.25
2018-11-03T07:02:04.900Z,20.26
2018-11-03T07:03:04.640Z,20.27
2018-11-03T07:04:04.892Z,20.27
2018-11-03T07:05:04.650Z,20.28
2018-11-03T07:06:04.997Z,20.28
2018-11-03T07:07:04.623Z,20.28
2018-11-03T07:08:05.070Z,20.29
2018-11-03T07:09:04.800Z,20.29
2018-11-03T07:10:04.856Z,20.29
2018-11-03T07:11:04.660Z,20.29
2018-11-03T07:12:04.877Z,20.29
2018-11-03T07:13:05.112Z,20.3
2018-11-03T07:14:04.730Z,20.3
2018-11-03T07:15:05.125Z,20.32
2018-11-03T07:16:04.539Z,20.32
2018-11-03T07:17:05.417Z,20.31
2018-11-03T07:18:04.654Z,20.32
2018-11-03T07:19:04.539Z,20.33
2018-11-03T07:20:04.989Z,20.33
2018-11-03T07:21:04.595Z,20.33
2018-11-03T07:22:05.034Z,20.34
2018-11-03T07:23:04.948Z,20.35
2018-11-03T07:24:04.922Z,20.35
2018-11-03T07:25:05.164Z,20.35
2018-11-03T07:26:05.106Z,20.36
2018-11-03T07:27:04.589Z,20.36
2018-11-03T07:28:04.884Z,20.37
2018-11-03T07:29:04.531Z,20.37
2018-11-03T07:30:04.699Z,20.38
2018-11-03T07:31:04.871Z,20.37
2018-11-03T07:32:04.700Z,20.38
2018-11-03T07:33:04.916Z,20.38
2018-11-03T07:34:04.814Z,20.39
2018-11-03T07:35:05.161Z,20.39
2018-11-03T07:36:05.246Z,20.4
2018-11-03T07:37:05.287Z,20.41
2018-11-03T07:38:04.603Z,20.41
2018-11-03T07:39:04.669Z,20.41
2018-11-03T07:40:04.669Z,20.41
2018-11-03T07:41:04.677Z,20.42
2018-11-03T07:42:04.572Z,20.42
2018-11-03T07:43:04.689Z,20.43
2018-11-03T07:44:04.767Z,20.43
2018-11-03T07:45:04.685Z,20.42
2018-11-03T07:46:04.665Z,20.44
2018-11-03T07:47:04.805Z,20.44
2018-11-03T07:48:04.709Z,20.44
2018-11-03T07:49:05.042Z,20.46
2018-11-03T07:50:04.720Z,20.46
2018-11-03T07:51:04.813Z,20.48
2018-11-03T07:52:04.665Z,20.48
2018-11-03T07:53:04.910Z,20.48
2018-11-03T07:54:04.650Z,20.48
2018-11-03T07:55:04.685Z,20.5
2018-11-03T07:56:04.616Z,20.51
2018-11-03T07:57:04.642Z,20.5
2018-11-03T07:58:04.677Z,20.51
2018-11-03T07:59:04.759Z,20.51
2018-11-03T08:00:04.752Z,20.51
2018-11-03T08:01:04.492Z,20.51
2018-11-03T08:02:04.749Z,20.51
2018-11-03T08:03:04.666Z,20.52
2018-11-03T08:04:05.034Z,20.52
2018-11-03T08:05:05.129Z,20.52
2018-11-03T08:06:04.643Z,20.51
2018-11-03T08:07:04.766Z,20.53
2018-11-03T08:08:04.568Z,20.52
2018-11-03T08:09:05.264Z,20.52
2018-11-03T08:10:04.811Z,20.52
2018-11-03T08:11:05.294Z,20.53
2018-11-03T08:12:04.574Z,20.54
2018-11-03T08:13:04.827Z,20.53
2018-11-03T08:14:04.903Z,20.53
2018-11-03T08:15:04.752Z,20.53
2018-11-03T08:16:05.107Z,20.53
2018-11-03T08:17:05.253Z,20.53
2018-11-03T08:18:05.077Z,20.53
2018-11-03T08:19:04.783Z,20.54
2018-11-03T08:20:04.756Z,20.54
2018-11-03T08:21:05.053Z,20.54
2018-11-03T08:22:04.733Z,20.53
2018-11-03T08:23:04.651Z,20.54
2018-11-03T08:24:05.565Z,20.54
2018-11-03T08:25:04.914Z,20.55
2018-11-03T08:26:04.812Z,20.55
2018-11-03T08:27:04.878Z,20.55
2018-11-03T08:28:04.776Z,20.52
2018-11-03T08:29:05.121Z,20.53
2018-11-03T08:30:05.104Z,20.57
2018-11-03T08:31:04.920Z,20.59
2018-11-03T08:32:04.494Z,20.59
2018-11-03T08:33:05.138Z,20.61
2018-11-03T08:34:04.779Z,20.6
2018-11-03T08:35:04.676Z,20.62
2018-11-03T08:36:04.596Z,20.6
2018-11-03T08:37:04.556Z,20.6
2018-11-03T08:38:05.009Z,20.6
2018-11-03T08:39:04.643Z,20.6
2018-11-03T08:40:05.077Z,20.6
2018-11-03T08:41:04.697Z,20.61
2018-11-03T08:42:04.515Z,20.61
2018-11-03T08:43:04.680Z,20.6
2018-11-03T08:44:04.767Z,20.6
2018-11-03T08:45:04.614Z,20.6
2018-11-03T08:46:04.487Z,20.61
2018-11-03T08:47:04.650Z,20.61
2018-11-03T08:48:05.023Z,20.61
2018-11-03T08:49:04.966Z,20.61
2018-11-03T08:50:04.774Z,20.61
2018-11-03T08:51:04.731Z,20.62
2018-11-03T08:52:04.733Z,20.62
2018-11-03T08:53:04.882Z,20.63
2018-11-03T08:54:04.565Z,20.63
2018-11-03T08:55:05.186Z,20.62
2018-11-03T08:56:04.493Z,20.62
2018-11-03T08:57:04.769Z,20.62
2018-11-03T08:58:04.552Z,20.62
2018-11-03T08:59:05.330Z,20.63
2018-11-03T09:00:05.336Z,20.65
2018-11-03T09:01:04.749Z,20.64
2018-11-03T09:02:04.663Z,20.64
2018-11-03T09:03:04.747Z,20.64
2018-11-03T09:04:04.728Z,20.65
2018-11-03T09:05:04.670Z,20.65
2018-11-03T09:06:05.264Z,20.64
2018-11-03T09:07:05.223Z,20.64
2018-11-03T09:08:05.159Z,20.63
2018-11-03T09:09:05.151Z,20.64
2018-11-03T09:10:04.812Z,20.64
2018-11-03T09:11:04.645Z,20.64
2018-11-03T09:12:04.651Z,20.64
2018-11-03T09:13:04.669Z,20.64
2018-11-03T09:14:04.644Z,20.64
2018-11-03T09:15:04.729Z,20.64
2018-11-03T09:16:04.681Z,20.64
2018-11-03T09:17:04.738Z,20.64
2018-11-03T09:18:04.785Z,20.65
2018-11-03T09:19:04.628Z,20.64
2018-11-03T09:20:04.596Z,20.65
2018-11-03T09:21:04.658Z,20.65
2018-11-03T09:22:04.705Z,20.65
2018-11-03T09:23:04.649Z,20.65
2018-11-03T09:24:04.759Z,20.64
2018-11-03T09:25:04.701Z,20.65
2018-11-03T09:26:04.711Z,20.66
2018-11-03T09:27:05.092Z,20.66
2018-11-03T09:28:04.659Z,20.68
2018-11-03T09:29:04.640Z,20.68
2018-11-03T09:30:04.613Z,20.71
2018-11-03T09:31:04.694Z,20.72
2018-11-03T09:32:04.938Z,20.72
2018-11-03T09:33:04.497Z,20.73
2018-11-03T09:34:04.761Z,20.73
2018-11-03T09:35:04.575Z,20.74
2018-11-03T09:36:05.271Z,20.75
2018-11-03T09:37:04.586Z,20.75
2018-11-03T09:38:04.561Z,20.75
2018-11-03T09:39:04.759Z,20.76
2018-11-03T09:40:04.890Z,20.78
2018-11-03T09:41:04.708Z,20.78
2018-11-03T09:42:04.724Z,20.79
2018-11-03T09:43:05.261Z,20.8
2018-11-03T09:44:04.381Z,20.8
2018-11-03T09:45:04.858Z,20.81
2018-11-03T09:46:04.933Z,20.81
2018-11-03T09:47:04.523Z,20.81
2018-11-03T09:48:04.841Z,20.82
2018-11-03T09:49:05.366Z,20.82
2018-11-03T09:50:04.671Z,20.8
2018-11-03T09:51:04.793Z,20.8
2018-11-03T09:52:04.732Z,20.79
2018-11-03T09:53:04.642Z,20.79
2018-11-03T09:54:04.426Z,20.79
2018-11-03T09:55:04.860Z,20.79
2018-11-03T09:56:04.728Z,20.79
2018-11-03T09:57:04.630Z,20.79
2018-11-03T09:58:04.621Z,20.79
2018-11-03T09:59:04.651Z,20.79
2018-11-03T10:00:05.514Z,20.79
2018-11-03T10:01:04.736Z,20.8
2018-11-03T10:02:04.923Z,20.81
2018-11-03T10:03:05.306Z,20.81
2018-11-03T10:04:04.954Z,20.82
2018-11-03T10:05:05.057Z,20.82
2018-11-03T10:06:04.533Z,20.83
2018-11-03T10:07:04.701Z,20.84
2018-11-03T10:08:04.343Z,20.81
2018-11-03T10:09:04.548Z,20.8
2018-11-03T10:10:04.623Z,20.82
2018-11-03T10:11:04.662Z,20.82
2018-11-03T10:12:04.611Z,20.85
2018-11-03T10:13:04.714Z,20.84
2018-11-03T10:14:05.351Z,20.86
2018-11-03T10:15:04.644Z,20.87
2018-11-03T10:16:05.117Z,20.88
2018-11-03T10:17:05.539Z,20.89
2018-11-03T10:18:04.572Z,20.89
2018-11-03T10:19:04.872Z,20.89
2018-11-03T10:20:04.434Z,20.91
2018-11-03T10:21:04.726Z,20.92
2018-11-03T10:22:04.636Z,20.91
2018-11-03T10:23:04.878Z,20.93
2018-11-03T10:24:04.807Z,20.94
2018-11-03T10:25:04.763Z,20.94
2018-11-03T10:26:04.770Z,20.94
2018-11-03T10:27:04.764Z,20.95
2018-11-03T10:28:04.507Z,20.95
2018-11-03T10:29:04.850Z,20.97
2018-11-03T10:30:04.580Z,20.96
2018-11-03T10:31:04.966Z,20.97
2018-11-03T10:32:04.845Z,20.96
2018-11-03T10:33:05.274Z,20.96
2018-11-03T10:34:05.071Z,20.97
2018-11-03T10:35:04.479Z,20.97
2018-11-03T10:36:04.957Z,20.98
2018-11-03T10:37:04.546Z,20.97
2018-11-03T10:38:04.746Z,20.98
2018-11-03T10:39:04.858Z,20.98
2018-11-03T10:40:04.907Z,21
2018-11-03T10:41:04.439Z,20.98
2018-11-03T10:42:04.480Z,20.98
2018-11-03T10:43:04.647Z,21
2018-11-03T10:44:04.458Z,21
2018-11-03T10:45:04.572Z,21.01
2018-11-03T10:46:04.689Z,21.01
2018-11-03T10:47:04.898Z,21.02
2018-11-03T10:48:04.623Z,21.03
2018-11-03T10:49:04.462Z,21.05
2018-11-03T10:50:04.499Z,21.03
2018-11-03T10:51:04.680Z,21.03
2018-11-03T10:52:04.645Z,21.04
2018-11-03T10:53:04.664Z,21.03
2018-11-03T10:54:04.708Z,21.03
2018-11-03T10:55:04.578Z,21.03
2018-11-03T10:56:04.439Z,21.02
2018-11-03T10:57:04.652Z,21.02
2018-11-03T10:58:04.627Z,21.03
2018-11-03T10:59:04.567Z,21.03
2018-11-03T11:00:04.658Z,21.02
2018-11-03T11:01:04.504Z,21.01
2018-11-03T11:02:04.556Z,21.01
2018-11-03T11:03:04.806Z,21.01
2018-11-03T11:04:04.683Z,21
2018-11-03T11:05:04.604Z,21
2018-11-03T11:06:04.477Z,20.99
2018-11-03T11:07:05.017Z,20.99
2018-11-03T11:08:04.462Z,20.99
2018-11-03T11:09:05.028Z,20.98
2018-11-03T11:10:04.540Z,20.97
2018-11-03T11:11:05.111Z,20.96
2018-11-03T11:12:05.239Z,20.97
2018-11-03T11:13:04.839Z,20.96
2018-11-03T11:14:04.701Z,20.96
2018-11-03T11:15:04.523Z,20.96
2018-11-03T11:16:04.584Z,20.96
2018-11-03T11:17:04.795Z,20.95
2018-11-03T11:18:04.502Z,20.93
2018-11-03T11:19:04.662Z,20.94
2018-11-03T11:20:05.136Z,20.95
2018-11-03T11:21:04.723Z,20.94
2018-11-03T11:22:05.024Z,20.95
2018-11-03T11:23:04.567Z,20.95
2018-11-03T11:24:04.611Z,20.94
2018-11-03T11:25:04.857Z,20.97
2018-11-03T11:26:04.758Z,20.97
2018-11-03T11:27:04.665Z,20.97
2018-11-03T11:28:04.796Z,20.97
2018-11-03T11:29:04.669Z,20.97
2018-11-03T11:30:04.893Z,20.99
2018-11-03T11:31:04.992Z,20.98
2018-11-03T11:32:05.774Z,20.99
2018-11-03T11:33:05.408Z,21
2018-11-03T11:34:05.102Z,21.01
2018-11-03T11:35:04.622Z,21.02
2018-11-03T11:36:04.738Z,21.04
2018-11-03T11:37:04.557Z,21.04
2018-11-03T11:38:04.577Z,21.04
2018-11-03T11:39:04.936Z,21.06
2018-11-03T11:40:04.629Z,21.06
2018-11-03T11:41:04.867Z,21.06
2018-11-03T11:42:04.802Z,21.07
2018-11-03T11:43:04.992Z,21.06
2018-11-03T11:44:04.671Z,21.07
2018-11-03T11:45:04.577Z,21.09
2018-11-03T11:46:04.653Z,21.11
2018-11-03T11:47:04.666Z,21.1
2018-11-03T11:48:04.770Z,21.12
2018-11-03T11:49:04.563Z,21.13
2018-11-03T11:50:04.925Z,21.14
2018-11-03T11:51:04.414Z,21.13
2018-11-03T11:52:04.464Z,21.15
2018-11-03T11:53:04.464Z,21.14
2018-11-03T11:54:04.429Z,21.14
2018-11-03T11:55:05.114Z,21.15
2018-11-03T11:56:04.820Z,21.15
2018-11-03T11:57:04.994Z,21.15
2018-11-03T11:58:04.845Z,21.16
2018-11-03T11:59:04.906Z,21.18
2018-11-03T12:00:04.556Z,21.17
2018-11-03T12:01:04.908Z,21.19
2018-11-03T12:02:04.822Z,21.2
2018-11-03T12:03:04.718Z,21.19
2018-11-03T12:04:04.723Z,21.2
2018-11-03T12:05:05.323Z,21.2
2018-11-03T12:06:04.819Z,21.2
2018-11-03T12:07:05.221Z,21.22
2018-11-03T12:08:04.354Z,21.2
2018-11-03T12:09:04.776Z,21.21
2018-11-03T12:10:04.745Z,21.21
2018-11-03T12:11:04.621Z,21.2
2018-11-03T12:12:04.752Z,21.21
2018-11-03T12:13:04.965Z,21.22
2018-11-03T12:14:04.397Z,21.21
2018-11-03T12:15:04.905Z,21.22
2018-11-03T12:16:04.877Z,21.22
2018-11-03T12:17:04.700Z,21.22
2018-11-03T12:18:04.617Z,21.21
2018-11-03T12:19:04.646Z,21.21
2018-11-03T12:20:04.593Z,21.2
2018-11-03T12:21:04.375Z,21.2
2018-11-03T12:22:04.518Z,21.2
2018-11-03T12:23:05.767Z,21.2
2018-11-03T12:24:04.775Z,21.2
2018-11-03T12:25:04.670Z,21.19
2018-11-03T12:26:04.660Z,21.19
2018-11-03T12:27:04.556Z,21.2
2018-11-03T12:28:04.694Z,21.19
2018-11-03T12:29:04.908Z,21.19
2018-11-03T12:30:04.600Z,21.18
2018-11-03T12:31:04.597Z,21.18
2018-11-03T12:32:04.659Z,21.18
2018-11-03T12:33:05.811Z,21.18
2018-11-03T12:34:04.535Z,21.18
2018-11-03T12:35:04.555Z,21.19
2018-11-03T12:36:04.574Z,21.19
2018-11-03T12:37:05.271Z,21.2
2018-11-03T12:38:04.872Z,21.18
2018-11-03T12:39:04.567Z,21.19
2018-11-03T12:40:04.579Z,21.19
2018-11-03T12:41:04.480Z,21.19
2018-11-03T12:42:04.898Z,21.18
2018-11-03T12:43:04.370Z,21.19
2018-11-03T12:44:04.509Z,21.19
2018-11-03T12:45:04.592Z,21.19
2018-11-03T12:46:04.482Z,21.2
2018-11-03T12:47:04.447Z,21.2
2018-11-03T12:48:04.617Z,21.19
2018-11-03T12:49:04.662Z,21.18
2018-11-03T12:50:04.581Z,21.19
2018-11-03T12:51:05.173Z,21.17
2018-11-03T12:52:04.750Z,21.18
2018-11-03T12:53:04.880Z,21.17
2018-11-03T12:54:04.811Z,21.16
2018-11-03T12:55:04.539Z,21.16